createdAt,value
2019-02-25T00:06:21.543Z,66.10
2019-02-25T00:21:27.182Z,68.50
2019-02-25T00:36:52.186Z,71.30
2019-02-25T00:51:57.463Z,73.00
2019-02-25T01:07:03.068Z,72.20
2019-02-25T01:22:20.468Z,74.00
2019-02-25T01:37:26.183Z,75.10
2019-02-25T01:52:31.423Z,75.80
2019-02-25T02:07:36.593Z,76.60
2019-02-25T02:22:42.898Z,78.70
2019-02-25T02:37:49.100Z,79.70
2019-02-25T02:52:54.743Z,79.50
2019-02-25T03:08:00.694Z,81.60
2019-02-25T03:23:17.744Z,84.40
2019-02-25T03:38:23.145Z,88.30
2019-02-25T03:53:47.854Z,90.40
2019-02-25T04:09:06.302Z,92.00
2019-02-25T04:24:11.698Z,90.70
2019-02-25T04:39:17.260Z,90.80
2019-02-25T04:54:22.678Z,91.70
2019-02-25T05:09:28.259Z,94.20
2019-02-25T05:24:34.333Z,96.90
2019-02-25T05:39:39.546Z,99.90
2019-02-25T05:54:44.703Z,99.90
2019-02-25T06:09:49.793Z,99.90
2019-02-25T06:25:07.362Z,99.90
2019-02-25T06:40:15.842Z,99.90
2019-02-25T06:55:21.510Z,99.90
2019-02-25T07:10:28.382Z,99.90
2019-02-25T07:25:34.901Z,99.90
2019-02-25T07:41:01.375Z,99.90
2019-02-25T07:56:08.704Z,99.90
2019-02-25T08:11:34.913Z,99.40
2019-02-25T08:26:42.977Z,99.00
2019-02-25T08:41:47.905Z,98.70
2019-02-25T08:56:53.097Z,97.90
2019-02-25T09:12:17.614Z,97.90
2019-02-25T09:27:22.705Z,97.80
2019-02-25T09:42:47.254Z,97.50
2019-02-25T09:57:52.791Z,97.40
2019-02-25T10:12:58.072Z,96.30
2019-02-25T10:28:03.590Z,95.60
2019-02-25T10:43:08.735Z,95.00
2019-02-25T10:58:14.620Z,93.50
2019-02-25T11:13:20.533Z,93.80
2019-02-25T11:28:39.186Z,92.50
2019-02-25T11:43:48.108Z,92.20
2019-02-25T11:58:53.511Z,86.30
2019-02-25T12:13:58.982Z,84.90
2019-02-25T12:29:10.632Z,80.00
2019-02-25T12:44:10.381Z,75.70
2019-02-25T12:59:15.871Z,67.60
2019-02-25T13:14:21.022Z,67.00
2019-02-25T13:29:26.305Z,61.80
2019-02-25T13:44:31.352Z,63.70
2019-02-25T13:59:36.660Z,64.70
2019-02-25T14:14:54.434Z,65.40
2019-02-25T14:29:59.800Z,67.40
2019-02-25T14:45:26.395Z,66.70
2019-02-25T15:00:34.825Z,68.30
2019-02-25T15:15:39.180Z,69.80
2019-02-25T15:30:46.420Z,70.10
2019-02-25T15:45:51.268Z,71.00
2019-02-25T16:00:57.102Z,69.50
2019-02-25T16:16:02.320Z,72.30
2019-02-25T16:31:10.554Z,70.80
2019-02-25T16:46:38.730Z,74.30
2019-02-25T17:01:42.227Z,73.80
2019-02-25T17:16:47.396Z,74.50
2019-02-25T17:31:53.235Z,73.10
2019-02-25T17:47:00.193Z,75.10
2019-02-25T18:02:08.418Z,76.40
2019-02-25T18:17:16.682Z,77.60
2019-02-25T18:32:21.198Z,78.90
2019-02-25T18:47:27.328Z,79.80
2019-02-25T19:02:33.433Z,81.20
2019-02-25T19:17:39.749Z,82.90
2019-02-25T19:32:46.221Z,85.70
2019-02-25T19:47:51.304Z,88.10
2019-02-25T20:03:09.017Z,89.30
2019-02-25T20:18:26.416Z,90.80
2019-02-25T20:33:33.022Z,91.30
2019-02-25T20:48:38.632Z,91.90
2019-02-25T21:03:46.032Z,92.80
2019-02-25T21:18:51.278Z,93.70
2019-02-25T21:33:58.705Z,93.80
2019-02-25T21:49:06.010Z,93.50
2019-02-25T22:04:24.717Z,93.80
2019-02-25T22:19:41.546Z,93.90
2019-02-25T22:34:48.059Z,94.90
2019-02-25T22:49:52.893Z,95.60
2019-02-25T23:04:58.374Z,96.30
2019-02-25T23:20:05.679Z,96.90
2019-02-25T23:35:13.803Z,98.30
2019-02-25T23:50:18.501Z,98.40
